sensor_id;sensor_type;location;lat;lon;timestamp;pressure;altitude;pressure_sealevel;temperature;humidity
55486;BME280;49383;-25.924;28.194;2023-03-17T00:01:17;85202.11;;;19.81;47.30
55486;BME280;49383;-25.924;28.194;2023-03-17T00:03:43;85204.70;;;19.66;49.30
55486;BME280;49383;-25.924;28.194;2023-03-17T00:06:13;85207.17;;;19.60;48.67
55486;BME280;49383;-25.924;28.194;2023-03-17T00:08:34;85205.34;;;19.50;45.42
55486;BME280;49383;-25.924;28.194;2023-03-17T00:10:57;85209.10;;;19.61;48.69
55486;BME280;49383;-25.924;28.194;2023-03-17T00:13:23;85210.03;;;19.58;48.75
55486;BME280;49383;-25.924;28.194;2023-03-17T00:15:51;85212.88;;;19.77;45.89
55486;BME280;49383;-25.924;28.194;2023-03-17T00:18:15;85215.51;;;19.88;47.30
55486;BME280;49383;-25.924;28.194;2023-03-17T00:20:38;85211.73;;;19.63;49.20
55486;BME280;49383;-25.924;28.194;2023-03-17T00:23:03;85212.00;;;19.61;48.55
55486;BME280;49383;-25.924;28.194;2023-03-17T00:25:29;85210.92;;;19.60;46.31
55486;BME280;49383;-25.924;28.194;2023-03-17T00:27:54;85209.58;;;19.63;49.17
55486;BME280;49383;-25.924;28.194;2023-03-17T00:30:19;85210.59;;;19.62;48.95
55486;BME280;49383;-25.924;28.194;2023-03-17T00:32:43;85209.88;;;19.94;45.53
55486;BME280;49383;-25.924;28.194;2023-03-17T00:35:14;85212.85;;;19.61;47.75
55486;BME280;49383;-25.924;28.194;2023-03-17T00:37:33;85212.26;;;19.55;49.35
55486;BME280;49383;-25.924;28.194;2023-03-17T00:39:58;85212.53;;;19.74;48.71
55486;BME280;49383;-25.924;28.194;2023-03-17T00:42:24;85210.31;;;19.61;45.35
55486;BME280;49383;-25.924;28.194;2023-03-17T00:44:49;85213.41;;;19.40;49.14
55486;BME280;49383;-25.924;28.194;2023-03-17T00:47:14;85213.25;;;19.46;48.83
55486;BME280;49383;-25.924;28.194;2023-03-17T00:49:39;85210.41;;;19.36;46.64
55486;BME280;49383;-25.924;28.194;2023-03-17T00:52:04;85210.10;;;19.60;48.19
55486;BME280;49383;-25.924;28.194;2023-03-17T00:54:29;85212.25;;;19.72;48.75
55486;BME280;49383;-25.924;28.194;2023-03-17T00:56:54;85213.67;;;19.86;48.34
55486;BME280;49383;-25.924;28.194;2023-03-17T00:59:24;85212.03;;;19.82;46.94
55486;BME280;49383;-25.924;28.194;2023-03-17T01:01:45;85210.30;;;19.26;48.85
55486;BME280;49383;-25.924;28.194;2023-03-17T01:04:12;85205.73;;;19.82;47.97
55486;BME280;49383;-25.924;28.194;2023-03-17T01:06:35;85201.02;;;19.55;45.28
55486;BME280;49383;-25.924;28.194;2023-03-17T01:09:00;85202.82;;;19.68;48.54
55486;BME280;49383;-25.924;28.194;2023-03-17T01:11:25;85200.48;;;19.48;48.69
55486;BME280;49383;-25.924;28.194;2023-03-17T01:13:50;85199.12;;;19.97;47.94
55486;BME280;49383;-25.924;28.194;2023-03-17T01:16:15;85199.89;;;19.33;47.35
55486;BME280;49383;-25.924;28.194;2023-03-17T01:18:40;85200.17;;;19.20;48.81
55486;BME280;49383;-25.924;28.194;2023-03-17T01:21:06;85200.93;;;19.73;48.47
55486;BME280;49383;-25.924;28.194;2023-03-17T01:23:31;85200.63;;;19.42;45.39
55486;BME280;49383;-25.924;28.194;2023-03-17T01:25:56;85204.77;;;19.58;49.14
55486;BME280;49383;-25.924;28.194;2023-03-17T01:28:21;85205.42;;;19.56;48.49
55486;BME280;49383;-25.924;28.194;2023-03-17T01:30:46;85203.43;;;19.67;45.79
55486;BME280;49383;-25.924;28.194;2023-03-17T01:33:12;85205.02;;;19.41;47.87
55486;BME280;49383;-25.924;28.194;2023-03-17T01:35:37;85205.97;;;19.71;48.18
55486;BME280;49383;-25.924;28.194;2023-03-17T01:38:01;85209.59;;;19.96;46.97
55486;BME280;49383;-25.924;28.194;2023-03-17T01:40:28;85211.38;;;19.59;47.80
55486;BME280;49383;-25.924;28.194;2023-03-17T01:42:57;85211.67;;;19.64;48.77
55486;BME280;49383;-25.924;28.194;2023-03-17T01:47:41;85210.37;;;19.22;46.15
55486;BME280;49383;-25.924;28.194;2023-03-17T01:50:08;85211.18;;;19.60;48.92
55486;BME280;49383;-25.924;28.194;2023-03-17T01:52:33;85210.90;;;19.78;48.36
55486;BME280;49383;-25.924;28.194;2023-03-17T01:54:59;85211.11;;;19.58;45.67
55486;BME280;49383;-25.924;28.194;2023-03-17T01:57:26;85213.90;;;19.98;47.23
55486;BME280;49383;-25.924;28.194;2023-03-17T01:59:51;85213.18;;;19.68;48.87
55486;BME280;49383;-25.924;28.194;2023-03-17T02:02:17;85211.00;;;19.60;47.79
55486;BME280;49383;-25.924;28.194;2023-03-17T02:04:39;85209.71;;;19.71;47.28
55486;BME280;49383;-25.924;28.194;2023-03-17T02:07:04;85211.21;;;19.18;49.80
55486;BME280;49383;-25.924;28.194;2023-03-17T02:09:29;85213.01;;;19.43;49.04
55486;BME280;49383;-25.924;28.194;2023-03-17T02:11:54;85211.69;;;19.32;44.89
55486;BME280;49383;-25.924;28.194;2023-03-17T02:14:20;85218.57;;;19.79;48.21
55486;BME280;49383;-25.924;28.194;2023-03-17T02:16:45;85219.71;;;19.46;49.87
55486;BME280;49383;-25.924;28.194;2023-03-17T02:19:10;85217.29;;;19.60;48.56
55486;BME280;49383;-25.924;28.194;2023-03-17T02:21:41;85218.85;;;19.33;47.25
55486;BME280;49383;-25.924;28.194;2023-03-17T02:24:03;85222.33;;;19.57;49.63
55486;BME280;49383;-25.924;28.194;2023-03-17T02:26:28;85225.00;;;19.74;49.08
55486;BME280;49383;-25.924;28.194;2023-03-17T02:28:50;85223.06;;;19.53;46.06
55486;BME280;49383;-25.924;28.194;2023-03-17T02:31:16;85226.11;;;19.55;49.15
55486;BME280;49383;-25.924;28.194;2023-03-17T02:33:42;85225.08;;;19.29;50.31
55486;BME280;49383;-25.924;28.194;2023-03-17T02:36:08;85224.73;;;19.27;49.70
55486;BME280;49383;-25.924;28.194;2023-03-17T02:38:33;85226.03;;;19.60;46.03
55486;BME280;49383;-25.924;28.194;2023-03-17T02:40:58;85225.83;;;19.37;49.94
55486;BME280;49383;-25.924;28.194;2023-03-17T02:43:23;85228.82;;;19.45;49.98
55486;BME280;49383;-25.924;28.194;2023-03-17T02:45:48;85227.65;;;19.67;46.52
55486;BME280;49383;-25.924;28.194;2023-03-17T02:48:14;85224.48;;;19.33;48.64
55486;BME280;49383;-25.924;28.194;2023-03-17T02:50:39;85221.68;;;19.10;51.02
55486;BME280;49383;-25.924;28.194;2023-03-17T02:53:05;85224.94;;;19.41;50.15
55486;BME280;49383;-25.924;28.194;2023-03-17T02:55:31;85224.66;;;19.69;46.36
55486;BME280;49383;-25.924;28.194;2023-03-17T02:57:56;85227.16;;;19.32;49.71
55486;BME280;49383;-25.924;28.194;2023-03-17T03:00:22;85228.38;;;19.36;50.30
55486;BME280;49383;-25.924;28.194;2023-03-17T03:02:47;85228.33;;;19.32;49.71
55486;BME280;49383;-25.924;28.194;2023-03-17T03:05:12;85233.50;;;19.57;47.38
55486;BME280;49383;-25.924;28.194;2023-03-17T03:07:37;85233.08;;;19.32;50.36
55486;BME280;49383;-25.924;28.194;2023-03-17T03:10:02;85233.26;;;19.40;50.06
55486;BME280;49383;-25.924;28.194;2023-03-17T03:12:27;85231.53;;;19.78;46.68
55486;BME280;49383;-25.924;28.194;2023-03-17T03:14:52;85232.60;;;19.42;48.93
55486;BME280;49383;-25.924;28.194;2023-03-17T03:17:17;85233.48;;;19.31;50.54
55486;BME280;49383;-25.924;28.194;2023-03-17T03:19:42;85238.32;;;19.61;49.60
55486;BME280;49383;-25.924;28.194;2023-03-17T03:22:08;85240.45;;;19.58;46.38
55486;BME280;49383;-25.924;28.194;2023-03-17T03:24:33;85245.52;;;19.37;49.97
55486;BME280;49383;-25.924;28.194;2023-03-17T03:26:58;85249.35;;;19.57;49.71
55486;BME280;49383;-25.924;28.194;2023-03-17T03:29:23;85252.09;;;19.61;47.35
55486;BME280;49383;-25.924;28.194;2023-03-17T03:31:48;85253.66;;;19.67;48.20
55486;BME280;49383;-25.924;28.194;2023-03-17T03:34:13;85257.00;;;19.62;49.75
55486;BME280;49383;-25.924;28.194;2023-03-17T03:36:38;85259.50;;;19.53;49.19
55486;BME280;49383;-25.924;28.194;2023-03-17T03:39:03;85261.44;;;19.49;45.99
55486;BME280;49383;-25.924;28.194;2023-03-17T03:41:28;85265.38;;;19.46;49.41
55486;BME280;49383;-25.924;28.194;2023-03-17T03:43:53;85265.92;;;19.60;49.56
55486;BME280;49383;-25.924;28.194;2023-03-17T03:46:19;85267.03;;;19.78;47.32
55486;BME280;49383;-25.924;28.194;2023-03-17T03:48:44;85266.77;;;19.60;48.97
55486;BME280;49383;-25.924;28.194;2023-03-17T03:51:09;85271.26;;;19.55;49.77
55486;BME280;49383;-25.924;28.194;2023-03-17T03:53:34;85273.04;;;19.43;49.31
55486;BME280;49383;-25.924;28.194;2023-03-17T03:55:59;85273.84;;;19.66;47.60
55486;BME280;49383;-25.924;28.194;2023-03-17T03:58:24;85276.91;;;19.57;49.69
55486;BME280;49383;-25.924;28.194;2023-03-17T04:00:49;85275.96;;;19.52;49.29
55486;BME280;49383;-25.924;28.194;2023-03-17T04:03:16;85277.26;;;19.77;46.46
55486;BME280;49383;-25.924;28.194;2023-03-17T04:05:39;85283.59;;;19.87;47.48
55486;BME280;49383;-25.924;28.194;2023-03-17T04:08:05;85283.02;;;19.69;49.25
55486;BME280;49383;-25.924;28.194;2023-03-17T04:10:30;85283.84;;;19.83;49.10
55486;BME280;49383;-25.924;28.194;2023-03-17T04:12:55;85282.72;;;19.88;46.16
55486;BME280;49383;-25.924;28.194;2023-03-17T04:15:20;85289.05;;;19.77;49.26
55486;BME280;49383;-25.924;28.194;2023-03-17T04:17:45;85292.05;;;19.61;49.57
55486;BME280;49383;-25.924;28.194;2023-03-17T04:20:11;85291.11;;;19.34;46.21
55486;BME280;49383;-25.924;28.194;2023-03-17T04:22:35;85293.37;;;19.97;48.85
55486;BME280;49383;-25.924;28.194;2023-03-17T04:25:00;85294.46;;;19.58;49.81
55486;BME280;49383;-25.924;28.194;2023-03-17T04:27:25;85296.22;;;19.34;48.62
55486;BME280;49383;-25.924;28.194;2023-03-17T04:29:50;85299.84;;;19.52;47.65
55486;BME280;49383;-25.924;28.194;2023-03-17T04:32:16;85300.41;;;19.55;50.07
55486;BME280;49383;-25.924;28.194;2023-03-17T04:34:41;85305.02;;;19.53;49.57
55486;BME280;49383;-25.924;28.194;2023-03-17T04:37:06;85306.35;;;19.39;45.77
55486;BME280;49383;-25.924;28.194;2023-03-17T04:39:31;85310.84;;;19.67;49.67
55486;BME280;49383;-25.924;28.194;2023-03-17T04:41:56;85312.66;;;19.43;49.45
55486;BME280;49383;-25.924;28.194;2023-03-17T04:44:21;85315.36;;;19.47;46.12
55486;BME280;49383;-25.924;28.194;2023-03-17T04:46:46;85318.60;;;19.88;49.26
55486;BME280;49383;-25.924;28.194;2023-03-17T04:49:11;85322.38;;;19.49;49.59
55486;BME280;49383;-25.924;28.194;2023-03-17T04:51:36;85321.74;;;19.52;45.42
55486;BME280;49383;-25.924;28.194;2023-03-17T04:54:02;85324.31;;;19.87;48.91
55486;BME280;49383;-25.924;28.194;2023-03-17T04:56:27;85327.59;;;19.37;50.10
55486;BME280;49383;-25.924;28.194;2023-03-17T04:58:52;85329.13;;;19.88;46.06
55486;BME280;49383;-25.924;28.194;2023-03-17T05:01:17;85333.10;;;19.37;49.59
55486;BME280;49383;-25.924;28.194;2023-03-17T05:03:42;85330.04;;;19.43;49.56
55486;BME280;49383;-25.924;28.194;2023-03-17T05:06:08;85330.25;;;19.56;46.86
55486;BME280;49383;-25.924;28.194;2023-03-17T05:08:33;85332.79;;;19.74;49.91
55486;BME280;49383;-25.924;28.194;2023-03-17T05:10:58;85333.42;;;19.92;47.35
55486;BME280;49383;-25.924;28.194;2023-03-17T05:13:25;85329.68;;;19.72;47.65
55486;BME280;49383;-25.924;28.194;2023-03-17T05:15:50;85330.48;;;19.65;50.47
55486;BME280;49383;-25.924;28.194;2023-03-17T05:18:14;85330.64;;;19.13;45.46
55486;BME280;49383;-25.924;28.194;2023-03-17T05:20:39;85331.10;;;19.57;47.01
55486;BME280;49383;-25.924;28.194;2023-03-17T05:23:04;85336.21;;;19.78;49.35
55486;BME280;49383;-25.924;28.194;2023-03-17T05:25:29;85335.18;;;19.32;45.57
55486;BME280;49383;-25.924;28.194;2023-03-17T05:27:54;85337.45;;;19.39;46.25
55486;BME280;49383;-25.924;28.194;2023-03-17T05:30:20;85344.72;;;19.57;49.10
55486;BME280;49383;-25.924;28.194;2023-03-17T05:32:45;85346.51;;;19.41;45.29
55486;BME280;49383;-25.924;28.194;2023-03-17T05:35:11;85347.39;;;19.58;45.12
55486;BME280;49383;-25.924;28.194;2023-03-17T05:37:35;85343.60;;;19.48;45.70
55486;BME280;49383;-25.924;28.194;2023-03-17T05:40:00;85347.97;;;19.74;45.91
55486;BME280;49383;-25.924;28.194;2023-03-17T05:42:26;85354.57;;;19.89;45.79
55486;BME280;49383;-25.924;28.194;2023-03-17T05:44:51;85357.46;;;19.87;45.89
55486;BME280;49383;-25.924;28.194;2023-03-17T05:47:16;85358.61;;;19.67;45.97
55486;BME280;49383;-25.924;28.194;2023-03-17T05:49:42;85364.03;;;19.99;46.00
55486;BME280;49383;-25.924;28.194;2023-03-17T05:52:07;85366.48;;;19.76;45.62
55486;BME280;49383;-25.924;28.194;2023-03-17T05:54:32;85369.62;;;19.61;45.60
55486;BME280;49383;-25.924;28.194;2023-03-17T05:56:57;85373.47;;;19.75;45.50
55486;BME280;49383;-25.924;28.194;2023-03-17T05:59:22;85375.29;;;20.17;44.51
55486;BME280;49383;-25.924;28.194;2023-03-17T06:01:47;85373.74;;;20.02;44.21
55486;BME280;49383;-25.924;28.194;2023-03-17T06:04:13;85374.78;;;20.05;44.72
55486;BME280;49383;-25.924;28.194;2023-03-17T06:06:38;85372.67;;;20.24;43.63
55486;BME280;49383;-25.924;28.194;2023-03-17T06:09:04;85375.30;;;19.90;44.13
55486;BME280;49383;-25.924;28.194;2023-03-17T06:11:29;85375.06;;;20.28;42.51
55486;BME280;49383;-25.924;28.194;2023-03-17T06:13:54;85375.80;;;20.35;42.49
55486;BME280;49383;-25.924;28.194;2023-03-17T06:16:20;85376.20;;;20.23;42.01
55486;BME280;49383;-25.924;28.194;2023-03-17T06:18:45;85379.05;;;20.02;42.71
55486;BME280;49383;-25.924;28.194;2023-03-17T06:21:11;85381.95;;;20.73;41.52
55486;BME280;49383;-25.924;28.194;2023-03-17T06:23:37;85382.65;;;20.22;40.80
55486;BME280;49383;-25.924;28.194;2023-03-17T06:26:01;85383.75;;;20.43;40.58
55486;BME280;49383;-25.924;28.194;2023-03-17T06:28:27;85383.79;;;20.26;40.53
55486;BME280;49383;-25.924;28.194;2023-03-17T06:30:53;85385.92;;;20.58;41.34
55486;BME280;49383;-25.924;28.194;2023-03-17T06:33:18;85384.43;;;20.55;40.76
55486;BME280;49383;-25.924;28.194;2023-03-17T06:35:44;85393.03;;;20.55;38.76
55486;BME280;49383;-25.924;28.194;2023-03-17T06:38:09;85393.74;;;20.64;38.67
55486;BME280;49383;-25.924;28.194;2023-03-17T06:40:35;85394.63;;;20.68;39.02
55486;BME280;49383;-25.924;28.194;2023-03-17T06:43:01;85397.46;;;20.62;38.42
55486;BME280;49383;-25.924;28.194;2023-03-17T06:45:26;85398.68;;;20.55;38.14
55486;BME280;49383;-25.924;28.194;2023-03-17T06:47:51;85401.51;;;20.44;38.71
55486;BME280;49383;-25.924;28.194;2023-03-17T06:50:17;85404.67;;;20.64;39.50
55486;BME280;49383;-25.924;28.194;2023-03-17T06:52:42;85406.92;;;20.67;39.19
55486;BME280;49383;-25.924;28.194;2023-03-17T06:55:08;85408.50;;;20.95;39.27
55486;BME280;49383;-25.924;28.194;2023-03-17T06:57:32;85406.00;;;21.02;38.38
55486;BME280;49383;-25.924;28.194;2023-03-17T06:59:57;85400.20;;;20.88;37.64
55486;BME280;49383;-25.924;28.194;2023-03-17T07:02:22;85409.88;;;20.71;36.93
55486;BME280;49383;-25.924;28.194;2023-03-17T07:04:47;85408.25;;;21.04;37.05
55486;BME280;49383;-25.924;28.194;2023-03-17T07:07:13;85412.67;;;21.08;38.35
55486;BME280;49383;-25.924;28.194;2023-03-17T07:09:39;85410.75;;;20.91;37.47
55486;BME280;49383;-25.924;28.194;2023-03-17T07:12:04;85413.18;;;20.55;36.81
55486;BME280;49383;-25.924;28.194;2023-03-17T07:14:30;85413.94;;;20.94;36.23
55486;BME280;49383;-25.924;28.194;2023-03-17T07:16:55;85414.16;;;21.04;36.47
55486;BME280;49383;-25.924;28.194;2023-03-17T07:19:20;85413.79;;;20.82;36.63
55486;BME280;49383;-25.924;28.194;2023-03-17T07:21:45;85413.87;;;20.80;37.97
55486;BME280;49383;-25.924;28.194;2023-03-17T07:24:11;85412.26;;;21.00;37.47
55486;BME280;49383;-25.924;28.194;2023-03-17T07:26:35;85416.36;;;20.95;36.72
55486;BME280;49383;-25.924;28.194;2023-03-17T07:29:01;85413.60;;;20.99;36.57
55486;BME280;49383;-25.924;28.194;2023-03-17T07:31:26;85413.21;;;21.04;36.24
55486;BME280;49383;-25.924;28.194;2023-03-17T07:33:52;85412.71;;;21.28;35.55
55486;BME280;49383;-25.924;28.194;2023-03-17T07:36:17;85408.75;;;21.50;36.32
55486;BME280;49383;-25.924;28.194;2023-03-17T07:38:43;85409.18;;;21.33;35.72
55486;BME280;49383;-25.924;28.194;2023-03-17T07:41:08;85410.47;;;21.48;34.91
55486;BME280;49383;-25.924;28.194;2023-03-17T07:43:33;85410.27;;;21.49;35.11
55486;BME280;49383;-25.924;28.194;2023-03-17T07:45:59;85411.82;;;21.49;35.16
55486;BME280;49383;-25.924;28.194;2023-03-17T07:48:24;85412.62;;;21.40;35.76
55486;BME280;49383;-25.924;28.194;2023-03-17T07:50:49;85412.62;;;21.19;36.67
55486;BME280;49383;-25.924;28.194;2023-03-17T07:53:15;85410.45;;;21.50;36.69
55486;BME280;49383;-25.924;28.194;2023-03-17T07:55:40;85400.35;;;21.76;35.41
55486;BME280;49383;-25.924;28.194;2023-03-17T07:58:05;85404.36;;;21.38;35.44
55486;BME280;49383;-25.924;28.194;2023-03-17T08:00:30;85403.01;;;21.79;35.07
55486;BME280;49383;-25.924;28.194;2023-03-17T08:02:56;85408.47;;;21.52;35.90
55486;BME280;49383;-25.924;28.194;2023-03-17T08:05:21;85400.87;;;21.74;35.32
55486;BME280;49383;-25.924;28.194;2023-03-17T08:07:47;85400.74;;;21.52;35.33
55486;BME280;49383;-25.924;28.194;2023-03-17T08:10:12;85396.36;;;21.81;35.37
55486;BME280;49383;-25.924;28.194;2023-03-17T08:12:38;85393.66;;;21.70;36.37
55486;BME280;49383;-25.924;28.194;2023-03-17T08:15:03;85394.75;;;21.59;36.70
55486;BME280;49383;-25.924;28.194;2023-03-17T08:17:28;85391.23;;;21.58;36.54
55486;BME280;49383;-25.924;28.194;2023-03-17T08:19:53;85392.56;;;21.56;36.41
55486;BME280;49383;-25.924;28.194;2023-03-17T08:22:18;85387.65;;;21.73;36.11
55486;BME280;49383;-25.924;28.194;2023-03-17T08:24:43;85387.84;;;21.72;36.70
55486;BME280;49383;-25.924;28.194;2023-03-17T08:27:08;85383.62;;;21.78;36.37
55486;BME280;49383;-25.924;28.194;2023-03-17T08:29:33;85382.04;;;21.95;36.09
55486;BME280;49383;-25.924;28.194;2023-03-17T08:31:58;85382.06;;;21.95;37.07
55486;BME280;49383;-25.924;28.194;2023-03-17T08:34:24;85377.79;;;21.71;36.83
55486;BME280;49383;-25.924;28.194;2023-03-17T08:36:49;85375.06;;;21.53;37.83
55486;BME280;49383;-25.924;28.194;2023-03-17T08:39:13;85373.17;;;21.52;38.35
55486;BME280;49383;-25.924;28.194;2023-03-17T08:41:39;85372.07;;;21.50;38.73
55486;BME280;49383;-25.924;28.194;2023-03-17T08:44:04;85369.75;;;21.48;39.19
55486;BME280;49383;-25.924;28.194;2023-03-17T08:46:31;85363.91;;;21.56;38.10
55486;BME280;49383;-25.924;28.194;2023-03-17T08:48:54;85360.82;;;21.40;38.45
55486;BME280;49383;-25.924;28.194;2023-03-17T08:51:19;85354.09;;;21.59;38.97
55486;BME280;49383;-25.924;28.194;2023-03-17T08:53:44;85350.93;;;21.49;39.35
55486;BME280;49383;-25.924;28.194;2023-03-17T08:56:09;85347.31;;;21.55;38.42
55486;BME280;49383;-25.924;28.194;2023-03-17T08:58:36;85346.35;;;21.63;39.03
55486;BME280;49383;-25.924;28.194;2023-03-17T09:01:00;85341.80;;;21.48;39.54
55486;BME280;49383;-25.924;28.194;2023-03-17T09:03:25;85343.26;;;21.62;38.64
55486;BME280;49383;-25.924;28.194;2023-03-17T09:05:49;85338.75;;;21.50;38.94
55486;BME280;49383;-25.924;28.194;2023-03-17T09:08:15;85340.48;;;21.61;39.21
55486;BME280;49383;-25.924;28.194;2023-03-17T09:10:39;85330.98;;;21.61;39.10
55486;BME280;49383;-25.924;28.194;2023-03-17T09:13:05;85326.38;;;21.68;38.16
55486;BME280;49383;-25.924;28.194;2023-03-17T09:15:31;85320.62;;;21.70;38.84
55486;BME280;49383;-25.924;28.194;2023-03-17T09:17:55;85318.46;;;21.65;39.24
55486;BME280;49383;-25.924;28.194;2023-03-17T09:20:20;85311.21;;;21.55;39.55
55486;BME280;49383;-25.924;28.194;2023-03-17T09:22:45;85308.75;;;21.64;39.29
55486;BME280;49383;-25.924;28.194;2023-03-17T09:25:10;85310.45;;;21.57;39.63
55486;BME280;49383;-25.924;28.194;2023-03-17T09:27:35;85302.21;;;21.51;39.90
55486;BME280;49383;-25.924;28.194;2023-03-17T09:30:00;85299.58;;;21.57;39.96
55486;BME280;49383;-25.924;28.194;2023-03-17T09:32:26;85292.14;;;21.52;40.14
55486;BME280;49383;-25.924;28.194;2023-03-17T09:34:50;85288.08;;;21.50;40.28
55486;BME280;49383;-25.924;28.194;2023-03-17T09:37:15;85287.00;;;21.45;40.47
55486;BME280;49383;-25.924;28.194;2023-03-17T09:39:40;85283.88;;;21.54;40.71
55486;BME280;49383;-25.924;28.194;2023-03-17T09:42:18;85280.48;;;21.70;40.90
55486;BME280;49383;-25.924;28.194;2023-03-17T09:44:44;85276.61;;;21.17;41.11
55486;BME280;49383;-25.924;28.194;2023-03-17T09:47:04;85276.02;;;21.33;40.96
55486;BME280;49383;-25.924;28.194;2023-03-17T09:49:22;85272.05;;;21.29;41.04
55486;BME280;49383;-25.924;28.194;2023-03-17T09:51:46;85266.43;;;21.40;41.23
55486;BME280;49383;-25.924;28.194;2023-03-17T09:54:12;85263.07;;;21.60;41.29
55486;BME280;49383;-25.924;28.194;2023-03-17T09:56:38;85257.70;;;21.54;41.43
55486;BME280;49383;-25.924;28.194;2023-03-17T09:59:05;85254.05;;;21.55;41.37
55486;BME280;49383;-25.924;28.194;2023-03-17T10:01:26;85250.62;;;21.49;41.46
55486;BME280;49383;-25.924;28.194;2023-03-17T10:03:51;85246.99;;;21.64;41.68
55486;BME280;49383;-25.924;28.194;2023-03-17T10:06:26;85242.33;;;21.25;41.98
55486;BME280;49383;-25.924;28.194;2023-03-17T10:08:47;85236.38;;;21.26;41.99
55486;BME280;49383;-25.924;28.194;2023-03-17T10:11:12;85234.28;;;21.07;42.34
55486;BME280;49383;-25.924;28.194;2023-03-17T10:13:46;85230.68;;;21.02;42.40
55486;BME280;49383;-25.924;28.194;2023-03-17T10:16:00;85228.76;;;19.67;42.43
55486;BME280;49383;-25.924;28.194;2023-03-17T10:18:26;85225.49;;;21.24;41.95
55486;BME280;49383;-25.924;28.194;2023-03-17T10:20:51;85224.65;;;21.18;42.40
55486;BME280;49383;-25.924;28.194;2023-03-17T10:23:14;85221.06;;;21.16;42.85
55486;BME280;49383;-25.924;28.194;2023-03-17T10:25:37;85216.97;;;20.87;42.94
55486;BME280;49383;-25.924;28.194;2023-03-17T10:28:06;85211.87;;;20.85;43.01
55486;BME280;49383;-25.924;28.194;2023-03-17T10:30:30;85210.95;;;21.01;43.19
55486;BME280;49383;-25.924;28.194;2023-03-17T10:32:54;85206.44;;;20.91;43.42
55486;BME280;49383;-25.924;28.194;2023-03-17T10:35:18;85203.26;;;20.94;43.39
55486;BME280;49383;-25.924;28.194;2023-03-17T10:37:44;85194.80;;;20.83;43.56
55486;BME280;49383;-25.924;28.194;2023-03-17T10:42:32;85196.83;;;20.80;43.64
55486;BME280;49383;-25.924;28.194;2023-03-17T10:45:00;85193.08;;;20.77;43.70
55486;BME280;49383;-25.924;28.194;2023-03-17T10:47:28;85193.82;;;20.42;43.87
55486;BME280;49383;-25.924;28.194;2023-03-17T10:49:48;85191.83;;;21.08;43.57
55486;BME280;49383;-25.924;28.194;2023-03-17T10:52:20;85190.50;;;20.94;43.75
55486;BME280;49383;-25.924;28.194;2023-03-17T10:54:38;85186.32;;;20.81;43.59
55486;BME280;49383;-25.924;28.194;2023-03-17T10:57:06;85184.24;;;20.81;43.56
55486;BME280;49383;-25.924;28.194;2023-03-17T10:59:30;85180.16;;;20.84;43.85
55486;BME280;49383;-25.924;28.194;2023-03-17T11:01:56;85176.53;;;20.75;44.03
55486;BME280;49383;-25.924;28.194;2023-03-17T11:04:27;85176.01;;;20.76;44.01
55486;BME280;49383;-25.924;28.194;2023-03-17T11:06:44;85172.38;;;20.76;44.06
55486;BME280;49383;-25.924;28.194;2023-03-17T11:09:14;85172.06;;;20.76;44.05
55486;BME280;49383;-25.924;28.194;2023-03-17T11:11:42;85168.45;;;20.50;44.10
55486;BME280;49383;-25.924;28.194;2023-03-17T11:14:03;85165.69;;;20.82;43.95
55486;BME280;49383;-25.924;28.194;2023-03-17T11:16:24;85163.20;;;20.75;44.05
55486;BME280;49383;-25.924;28.194;2023-03-17T11:18:51;85161.55;;;20.65;44.25
55486;BME280;49383;-25.924;28.194;2023-03-17T11:21:19;85160.11;;;20.51;44.49
55486;BME280;49383;-25.924;28.194;2023-03-17T11:23:47;85161.81;;;20.69;44.26
55486;BME280;49383;-25.924;28.194;2023-03-17T11:26:15;85159.58;;;20.39;44.75
55486;BME280;49383;-25.924;28.194;2023-03-17T11:28:34;85156.29;;;20.49;44.58
55486;BME280;49383;-25.924;28.194;2023-03-17T11:31:00;85153.50;;;20.40;44.46
55486;BME280;49383;-25.924;28.194;2023-03-17T11:33:31;85153.45;;;20.53;44.58
55486;BME280;49383;-25.924;28.194;2023-03-17T11:35:51;85148.90;;;20.47;44.70
55486;BME280;49383;-25.924;28.194;2023-03-17T11:38:19;85145.04;;;20.38;44.83
55486;BME280;49383;-25.924;28.194;2023-03-17T11:40:40;85140.39;;;20.46;44.73
55486;BME280;49383;-25.924;28.194;2023-03-17T11:43:13;85135.51;;;20.31;44.98
55486;BME280;49383;-25.924;28.194;2023-03-17T11:45:29;85130.64;;;20.39;44.90
55486;BME280;49383;-25.924;28.194;2023-03-17T11:48:02;85130.05;;;20.65;44.53
55486;BME280;49383;-25.924;28.194;2023-03-17T11:50:25;85128.57;;;20.41;44.96
55486;BME280;49383;-25.924;28.194;2023-03-17T11:52:51;85127.38;;;20.47;44.85
55486;BME280;49383;-25.924;28.194;2023-03-17T11:55:13;85127.50;;;20.49;44.90
55486;BME280;49383;-25.924;28.194;2023-03-17T11:57:37;85125.31;;;20.30;45.22
55486;BME280;49383;-25.924;28.194;2023-03-17T11:59:59;85122.84;;;20.82;45.25
55486;BME280;49383;-25.924;28.194;2023-03-17T12:02:26;85121.97;;;20.48;45.03
55486;BME280;49383;-25.924;28.194;2023-03-17T12:04:52;85117.52;;;21.12;45.43
55486;BME280;49383;-25.924;28.194;2023-03-17T12:07:16;85115.95;;;20.76;46.49
55486;BME280;49383;-25.924;28.194;2023-03-17T12:09:40;85113.23;;;20.77;43.72
55486;BME280;49383;-25.924;28.194;2023-03-17T12:12:02;85112.27;;;20.60;44.07
55486;BME280;49383;-25.924;28.194;2023-03-17T12:14:30;85108.68;;;20.71;44.50
55486;BME280;49383;-25.924;28.194;2023-03-17T12:16:55;85106.21;;;20.69;44.77
55486;BME280;49383;-25.924;28.194;2023-03-17T12:19:20;85103.00;;;20.54;45.09
55486;BME280;49383;-25.924;28.194;2023-03-17T12:21:47;85100.68;;;20.41;45.41
55486;BME280;49383;-25.924;28.194;2023-03-17T12:24:12;85098.02;;;20.32;45.67
55486;BME280;49383;-25.924;28.194;2023-03-17T12:26:36;85095.72;;;20.31;45.73
55486;BME280;49383;-25.924;28.194;2023-03-17T12:29:01;85096.04;;;20.22;45.92
55486;BME280;49383;-25.924;28.194;2023-03-17T12:31:27;85093.54;;;20.72;45.92
55486;BME280;49383;-25.924;28.194;2023-03-17T12:33:52;85092.72;;;20.17;46.00